sensor_id;sensor_type;location;lat;lon;timestamp;P1;durP1;ratioP1;P2;durP2;ratioP2
21671;SDS011;10997;52.242;8.168;2023-06-22T00:01:57;7.07;;;6.38;;
21671;SDS011;10997;52.242;8.168;2023-06-22T00:06:58;10.13;;;7.22;;
21671;SDS011;10997;52.242;8.168;2023-06-22T00:11:58;8.35;;;6.40;;
21671;SDS011;10997;52.242;8.168;2023-06-22T00:16:59;8.43;;;6.32;;
21671;SDS011;10997;52.242;8.168;2023-06-22T00:22:00;8.65;;;7.15;;
21671;SDS011;10997;52.242;8.168;2023-06-22T00:27:03;9.52;;;7.05;;
21671;SDS011;10997;52.242;8.168;2023-06-22T00:32:05;9.85;;;8.65;;
21671;SDS011;10997;52.242;8.168;2023-06-22T00:37:06;13.60;;;9.73;;
21671;SDS011;10997;52.242;8.168;2023-06-22T00:42:07;10.57;;;9.43;;
21671;SDS011;10997;52.242;8.168;2023-06-22T00:47:07;12.35;;;9.23;;
21671;SDS011;10997;52.242;8.168;2023-06-22T00:52:08;14.18;;;9.55;;
21671;SDS011;10997;52.242;8.168;2023-06-22T00:57:14;10.90;;;9.32;;
21671;SDS011;10997;52.242;8.168;2023-06-22T01:02:18;13.68;;;10.10;;
21671;SDS011;10997;52.242;8.168;2023-06-22T01:12:38;18.30;;;11.55;;
21671;SDS011;10997;52.242;8.168;2023-06-22T01:17:43;16.17;;;11.77;;
21671;SDS011;10997;52.242;8.168;2023-06-22T01:28:19;13.40;;;11.35;;
21671;SDS011;10997;52.242;8.168;2023-06-22T01:38:33;20.50;;;12.57;;
21671;SDS011;10997;52.242;8.168;2023-06-22T01:43:35;14.95;;;11.50;;
21671;SDS011;10997;52.242;8.168;2023-06-22T01:48:36;15.15;;;12.05;;
21671;SDS011;10997;52.242;8.168;2023-06-22T01:53:39;16.33;;;12.02;;
21671;SDS011;10997;52.242;8.168;2023-06-22T01:58:41;16.80;;;12.13;;
21671;SDS011;10997;52.242;8.168;2023-06-22T02:04:16;13.45;;;11.63;;
21671;SDS011;10997;52.242;8.168;2023-06-22T02:09:21;16.00;;;12.00;;
21671;SDS011;10997;52.242;8.168;2023-06-22T02:14:23;19.02;;;13.00;;
21671;SDS011;10997;52.242;8.168;2023-06-22T02:19:25;17.33;;;13.45;;
21671;SDS011;10997;52.242;8.168;2023-06-22T02:24:27;16.83;;;12.20;;
21671;SDS011;10997;52.242;8.168;2023-06-22T02:29:30;16.90;;;11.77;;
21671;SDS011;10997;52.242;8.168;2023-06-22T02:34:31;17.25;;;11.98;;
21671;SDS011;10997;52.242;8.168;2023-06-22T02:39:34;14.38;;;11.40;;
21671;SDS011;10997;52.242;8.168;2023-06-22T02:44:34;14.82;;;11.38;;
21671;SDS011;10997;52.242;8.168;2023-06-22T02:49:35;15.02;;;11.80;;
21671;SDS011;10997;52.242;8.168;2023-06-22T02:54:35;16.83;;;12.30;;
21671;SDS011;10997;52.242;8.168;2023-06-22T02:59:36;14.70;;;12.63;;
21671;SDS011;10997;52.242;8.168;2023-06-22T03:04:40;15.77;;;12.00;;
21671;SDS011;10997;52.242;8.168;2023-06-22T03:09:42;16.00;;;13.40;;
21671;SDS011;10997;52.242;8.168;2023-06-22T03:14:43;17.80;;;14.32;;
21671;SDS011;10997;52.242;8.168;2023-06-22T03:19:43;16.05;;;13.23;;
21671;SDS011;10997;52.242;8.168;2023-06-22T03:24:44;17.17;;;12.40;;
21671;SDS011;10997;52.242;8.168;2023-06-22T03:29:44;19.25;;;12.32;;
21671;SDS011;10997;52.242;8.168;2023-06-22T03:34:45;16.58;;;12.85;;
21671;SDS011;10997;52.242;8.168;2023-06-22T03:39:49;16.17;;;12.50;;
21671;SDS011;10997;52.242;8.168;2023-06-22T03:44:49;18.48;;;14.27;;
21671;SDS011;10997;52.242;8.168;2023-06-22T03:49:50;17.80;;;14.68;;
21671;SDS011;10997;52.242;8.168;2023-06-22T03:54:54;16.55;;;14.52;;
21671;SDS011;10997;52.242;8.168;2023-06-22T03:59:56;18.05;;;14.15;;
21671;SDS011;10997;52.242;8.168;2023-06-22T04:04:57;23.38;;;15.82;;
21671;SDS011;10997;52.242;8.168;2023-06-22T04:09:58;20.50;;;14.38;;
21671;SDS011;10997;52.242;8.168;2023-06-22T04:14:59;20.73;;;13.50;;
21671;SDS011;10997;52.242;8.168;2023-06-22T04:19:59;20.95;;;13.75;;
21671;SDS011;10997;52.242;8.168;2023-06-22T04:25:00;19.55;;;14.30;;
21671;SDS011;10997;52.242;8.168;2023-06-22T04:30:01;21.45;;;14.18;;
21671;SDS011;10997;52.242;8.168;2023-06-22T04:35:02;17.45;;;13.43;;
21671;SDS011;10997;52.242;8.168;2023-06-22T04:40:05;18.30;;;13.82;;
21671;SDS011;10997;52.242;8.168;2023-06-22T04:45:06;18.30;;;14.30;;
21671;SDS011;10997;52.242;8.168;2023-06-22T04:50:07;18.40;;;14.57;;
21671;SDS011;10997;52.242;8.168;2023-06-22T04:55:08;16.50;;;13.45;;
21671;SDS011;10997;52.242;8.168;2023-06-22T05:00:08;19.85;;;14.70;;
21671;SDS011;10997;52.242;8.168;2023-06-22T05:05:13;15.38;;;13.73;;
21671;SDS011;10997;52.242;8.168;2023-06-22T05:10:14;18.58;;;14.13;;
21671;SDS011;10997;52.242;8.168;2023-06-22T05:15:14;17.58;;;13.95;;
21671;SDS011;10997;52.242;8.168;2023-06-22T05:20:15;15.05;;;13.32;;
21671;SDS011;10997;52.242;8.168;2023-06-22T05:25:17;15.27;;;12.05;;
21671;SDS011;10997;52.242;8.168;2023-06-22T05:30:18;15.10;;;12.48;;
21671;SDS011;10997;52.242;8.168;2023-06-22T05:35:19;15.55;;;12.15;;
21671;SDS011;10997;52.242;8.168;2023-06-22T05:40:20;13.60;;;12.00;;
21671;SDS011;10997;52.242;8.168;2023-06-22T05:45:20;16.33;;;11.55;;
21671;SDS011;10997;52.242;8.168;2023-06-22T05:50:21;15.18;;;12.57;;
21671;SDS011;10997;52.242;8.168;2023-06-22T05:55:21;14.90;;;12.00;;
21671;SDS011;10997;52.242;8.168;2023-06-22T06:00:22;14.80;;;11.60;;
21671;SDS011;10997;52.242;8.168;2023-06-22T06:05:23;13.05;;;11.55;;
21671;SDS011;10997;52.242;8.168;2023-06-22T06:10:25;11.85;;;10.43;;
21671;SDS011;10997;52.242;8.168;2023-06-22T06:15:26;13.68;;;9.90;;
21671;SDS011;10997;52.242;8.168;2023-06-22T06:20:26;13.68;;;10.00;;
21671;SDS011;10997;52.242;8.168;2023-06-22T06:25:30;11.90;;;9.93;;
21671;SDS011;10997;52.242;8.168;2023-06-22T06:30:30;13.93;;;10.55;;
21671;SDS011;10997;52.242;8.168;2023-06-22T06:35:31;12.18;;;10.65;;
21671;SDS011;10997;52.242;8.168;2023-06-22T06:40:32;13.02;;;10.25;;
21671;SDS011;10997;52.242;8.168;2023-06-22T06:45:32;12.60;;;10.23;;
21671;SDS011;10997;52.242;8.168;2023-06-22T06:50:34;13.18;;;10.73;;
21671;SDS011;10997;52.242;8.168;2023-06-22T06:55:35;11.75;;;10.55;;
21671;SDS011;10997;52.242;8.168;2023-06-22T07:00:35;11.68;;;10.23;;
21671;SDS011;10997;52.242;8.168;2023-06-22T07:05:36;13.23;;;11.10;;
21671;SDS011;10997;52.242;8.168;2023-06-22T07:10:37;15.18;;;10.93;;
21671;SDS011;10997;52.242;8.168;2023-06-22T07:15:38;13.73;;;11.98;;
21671;SDS011;10997;52.242;8.168;2023-06-22T07:20:38;13.70;;;12.25;;
21671;SDS011;10997;52.242;8.168;2023-06-22T07:25:39;16.02;;;12.95;;
21671;SDS011;10997;52.242;8.168;2023-06-22T07:30:39;13.90;;;12.00;;
21671;SDS011;10997;52.242;8.168;2023-06-22T07:35:40;13.05;;;11.75;;
21671;SDS011;10997;52.242;8.168;2023-06-22T07:40:41;15.90;;;12.43;;
21671;SDS011;10997;52.242;8.168;2023-06-22T07:45:47;15.10;;;12.38;;
21671;SDS011;10997;52.242;8.168;2023-06-22T07:50:52;15.90;;;12.00;;
21671;SDS011;10997;52.242;8.168;2023-06-22T07:55:53;16.60;;;12.27;;
21671;SDS011;10997;52.242;8.168;2023-06-22T08:00:54;14.10;;;12.13;;
21671;SDS011;10997;52.242;8.168;2023-06-22T08:05:54;14.05;;;12.18;;
21671;SDS011;10997;52.242;8.168;2023-06-22T08:10:55;14.30;;;12.82;;
21671;SDS011;10997;52.242;8.168;2023-06-22T08:15:56;14.98;;;13.38;;
21671;SDS011;10997;52.242;8.168;2023-06-22T08:20:56;16.83;;;12.43;;
21671;SDS011;10997;52.242;8.168;2023-06-22T08:25:57;16.40;;;13.55;;
21671;SDS011;10997;52.242;8.168;2023-06-22T08:30:58;16.92;;;14.05;;
21671;SDS011;10997;52.242;8.168;2023-06-22T08:35:59;15.68;;;13.43;;
21671;SDS011;10997;52.242;8.168;2023-06-22T08:41:00;14.23;;;12.73;;
21671;SDS011;10997;52.242;8.168;2023-06-22T08:46:01;18.00;;;13.85;;
21671;SDS011;10997;52.242;8.168;2023-06-22T08:51:02;16.83;;;13.07;;
21671;SDS011;10997;52.242;8.168;2023-06-22T08:56:04;16.25;;;14.55;;
21671;SDS011;10997;52.242;8.168;2023-06-22T09:01:05;14.23;;;12.70;;
21671;SDS011;10997;52.242;8.168;2023-06-22T09:06:05;15.25;;;13.60;;
21671;SDS011;10997;52.242;8.168;2023-06-22T09:11:06;16.70;;;14.85;;
21671;SDS011;10997;52.242;8.168;2023-06-22T09:16:07;16.92;;;15.13;;
21671;SDS011;10997;52.242;8.168;2023-06-22T09:21:07;18.58;;;15.23;;
21671;SDS011;10997;52.242;8.168;2023-06-22T09:26:08;16.48;;;14.65;;
21671;SDS011;10997;52.242;8.168;2023-06-22T09:31:09;18.88;;;14.15;;
21671;SDS011;10997;52.242;8.168;2023-06-22T09:36:10;16.42;;;14.73;;
21671;SDS011;10997;52.242;8.168;2023-06-22T09:41:11;17.80;;;14.25;;
21671;SDS011;10997;52.242;8.168;2023-06-22T09:46:11;17.05;;;14.38;;
21671;SDS011;10997;52.242;8.168;2023-06-22T09:51:12;17.90;;;14.98;;
21671;SDS011;10997;52.242;8.168;2023-06-22T09:56:12;19.23;;;15.23;;
21671;SDS011;10997;52.242;8.168;2023-06-22T10:01:15;18.38;;;16.27;;
21671;SDS011;10997;52.242;8.168;2023-06-22T10:06:15;18.25;;;16.35;;
21671;SDS011;10997;52.242;8.168;2023-06-22T10:11:16;16.77;;;15.00;;
21671;SDS011;10997;52.242;8.168;2023-06-22T10:16:16;17.23;;;15.43;;
21671;SDS011;10997;52.242;8.168;2023-06-22T10:21:17;16.85;;;15.15;;
21671;SDS011;10997;52.242;8.168;2023-06-22T10:26:18;19.42;;;16.92;;
21671;SDS011;10997;52.242;8.168;2023-06-22T10:31:18;18.95;;;15.85;;
21671;SDS011;10997;52.242;8.168;2023-06-22T10:36:19;19.48;;;15.18;;
21671;SDS011;10997;52.242;8.168;2023-06-22T10:41:19;16.20;;;14.60;;
21671;SDS011;10997;52.242;8.168;2023-06-22T10:46:21;17.77;;;15.60;;
21671;SDS011;10997;52.242;8.168;2023-06-22T10:51:24;18.15;;;15.98;;
21671;SDS011;10997;52.242;8.168;2023-06-22T10:56:25;17.65;;;15.75;;
21671;SDS011;10997;52.242;8.168;2023-06-22T11:01:26;19.77;;;15.80;;
21671;SDS011;10997;52.242;8.168;2023-06-22T11:06:27;16.15;;;14.40;;
21671;SDS011;10997;52.242;8.168;2023-06-22T11:11:28;17.33;;;15.63;;
21671;SDS011;10997;52.242;8.168;2023-06-22T11:16:29;16.15;;;13.93;;
21671;SDS011;10997;52.242;8.168;2023-06-22T11:21:29;16.77;;;14.32;;
21671;SDS011;10997;52.242;8.168;2023-06-22T11:26:31;14.73;;;12.18;;
21671;SDS011;10997;52.242;8.168;2023-06-22T11:31:32;17.92;;;15.88;;
21671;SDS011;10997;52.242;8.168;2023-06-22T11:36:34;17.77;;;15.05;;
21671;SDS011;10997;52.242;8.168;2023-06-22T11:41:35;16.42;;;14.50;;
21671;SDS011;10997;52.242;8.168;2023-06-22T11:46:35;13.88;;;12.45;;
21671;SDS011;10997;52.242;8.168;2023-06-22T11:51:36;14.15;;;12.68;;
21671;SDS011;10997;52.242;8.168;2023-06-22T11:56:37;13.88;;;12.48;;
21671;SDS011;10997;52.242;8.168;2023-06-22T12:01:38;11.52;;;10.43;;
21671;SDS011;10997;52.242;8.168;2023-06-22T12:06:38;13.50;;;12.20;;
21671;SDS011;10997;52.242;8.168;2023-06-22T12:11:41;13.52;;;12.13;;
21671;SDS011;10997;52.242;8.168;2023-06-22T12:16:42;12.85;;;11.65;;
21671;SDS011;10997;52.242;8.168;2023-06-22T12:21:44;12.95;;;11.25;;
21671;SDS011;10997;52.242;8.168;2023-06-22T12:26:45;14.23;;;12.82;;
21671;SDS011;10997;52.242;8.168;2023-06-22T12:31:46;14.10;;;12.65;;
21671;SDS011;10997;52.242;8.168;2023-06-22T12:36:46;16.40;;;12.27;;
21671;SDS011;10997;52.242;8.168;2023-06-22T12:41:48;13.63;;;12.18;;
21671;SDS011;10997;52.242;8.168;2023-06-22T12:46:49;13.18;;;11.85;;
21671;SDS011;10997;52.242;8.168;2023-06-22T12:51:49;13.30;;;11.90;;
21671;SDS011;10997;52.242;8.168;2023-06-22T12:56:50;14.45;;;12.32;;
21671;SDS011;10997;52.242;8.168;2023-06-22T13:01:51;14.77;;;13.07;;
21671;SDS011;10997;52.242;8.168;2023-06-22T13:06:51;14.10;;;12.60;;
21671;SDS011;10997;52.242;8.168;2023-06-22T13:11:52;16.42;;;12.95;;
21671;SDS011;10997;52.242;8.168;2023-06-22T13:16:53;15.50;;;13.20;;
21671;SDS011;10997;52.242;8.168;2023-06-22T13:21:53;13.02;;;11.55;;
21671;SDS011;10997;52.242;8.168;2023-06-22T13:26:54;16.63;;;13.52;;
21671;SDS011;10997;52.242;8.168;2023-06-22T13:31:55;17.75;;;14.60;;
21671;SDS011;10997;52.242;8.168;2023-06-22T13:36:57;16.90;;;13.82;;
21671;SDS011;10997;52.242;8.168;2023-06-22T13:41:57;14.57;;;13.05;;
21671;SDS011;10997;52.242;8.168;2023-06-22T13:46:58;16.92;;;13.75;;
21671;SDS011;10997;52.242;8.168;2023-06-22T13:51:59;18.67;;;14.60;;
21671;SDS011;10997;52.242;8.168;2023-06-22T13:57:00;18.38;;;15.38;;
21671;SDS011;10997;52.242;8.168;2023-06-22T14:02:00;19.15;;;16.30;;
21671;SDS011;10997;52.242;8.168;2023-06-22T14:07:01;20.38;;;17.38;;
21671;SDS011;10997;52.242;8.168;2023-06-22T14:12:08;20.55;;;17.67;;
21671;SDS011;10997;52.242;8.168;2023-06-22T14:17:08;19.75;;;17.65;;
21671;SDS011;10997;52.242;8.168;2023-06-22T14:22:09;21.77;;;18.88;;
21671;SDS011;10997;52.242;8.168;2023-06-22T14:27:10;22.50;;;19.08;;
21671;SDS011;10997;52.242;8.168;2023-06-22T14:32:11;20.15;;;18.02;;
21671;SDS011;10997;52.242;8.168;2023-06-22T14:37:11;20.67;;;18.58;;
21671;SDS011;10997;52.242;8.168;2023-06-22T14:42:15;20.38;;;18.10;;
21671;SDS011;10997;52.242;8.168;2023-06-22T14:47:15;20.52;;;18.15;;
21671;SDS011;10997;52.242;8.168;2023-06-22T14:52:18;19.42;;;17.30;;
21671;SDS011;10997;52.242;8.168;2023-06-22T14:57:19;19.50;;;17.45;;
21671;SDS011;10997;52.242;8.168;2023-06-22T15:02:20;18.50;;;16.63;;
21671;SDS011;10997;52.242;8.168;2023-06-22T15:07:21;17.00;;;15.20;;
21671;SDS011;10997;52.242;8.168;2023-06-22T15:12:21;16.77;;;14.43;;
21671;SDS011;10997;52.242;8.168;2023-06-22T15:17:22;17.95;;;14.60;;
21671;SDS011;10997;52.242;8.168;2023-06-22T15:22:23;17.10;;;15.40;;
21671;SDS011;10997;52.242;8.168;2023-06-22T15:27:24;18.30;;;16.40;;
21671;SDS011;10997;52.242;8.168;2023-06-22T15:32:24;18.45;;;16.65;;
21671;SDS011;10997;52.242;8.168;2023-06-22T15:37:25;19.20;;;17.30;;
21671;SDS011;10997;52.242;8.168;2023-06-22T15:42:26;20.48;;;18.38;;
21671;SDS011;10997;52.242;8.168;2023-06-22T15:47:26;20.60;;;18.42;;
21671;SDS011;10997;52.242;8.168;2023-06-22T15:52:27;22.00;;;18.77;;
21671;SDS011;10997;52.242;8.168;2023-06-22T15:57:27;19.83;;;17.77;;
21671;SDS011;10997;52.242;8.168;2023-06-22T16:02:29;21.67;;;19.30;;
21671;SDS011;10997;52.242;8.168;2023-06-22T16:07:29;20.48;;;18.27;;
21671;SDS011;10997;52.242;8.168;2023-06-22T16:12:30;20.05;;;17.92;;
21671;SDS011;10997;52.242;8.168;2023-06-22T16:17:31;20.17;;;17.40;;
21671;SDS011;10997;52.242;8.168;2023-06-22T16:22:31;18.05;;;16.10;;
21671;SDS011;10997;52.242;8.168;2023-06-22T16:27:32;17.65;;;15.93;;
21671;SDS011;10997;52.242;8.168;2023-06-22T16:32:33;17.20;;;15.50;;
21671;SDS011;10997;52.242;8.168;2023-06-22T16:37:33;18.25;;;16.17;;
21671;SDS011;10997;52.242;8.168;2023-06-22T16:42:34;17.42;;;15.15;;
21671;SDS011;10997;52.242;8.168;2023-06-22T16:47:34;18.00;;;16.00;;
21671;SDS011;10997;52.242;8.168;2023-06-22T16:52:35;19.08;;;16.15;;
21671;SDS011;10997;52.242;8.168;2023-06-22T16:57:37;18.02;;;16.20;;
21671;SDS011;10997;52.242;8.168;2023-06-22T17:02:50;20.10;;;18.05;;
21671;SDS011;10997;52.242;8.168;2023-06-22T17:07:56;19.70;;;17.60;;
21671;SDS011;10997;52.242;8.168;2023-06-22T17:13:02;20.38;;;18.27;;
21671;SDS011;10997;52.242;8.168;2023-06-22T17:18:04;20.75;;;18.58;;
21671;SDS011;10997;52.242;8.168;2023-06-22T17:23:06;20.77;;;18.55;;
21671;SDS011;10997;52.242;8.168;2023-06-22T17:28:06;21.17;;;18.88;;
21671;SDS011;10997;52.242;8.168;2023-06-22T17:33:14;23.25;;;19.58;;
21671;SDS011;10997;52.242;8.168;2023-06-22T17:38:20;24.95;;;19.88;;
21671;SDS011;10997;52.242;8.168;2023-06-22T17:43:22;25.15;;;20.65;;
21671;SDS011;10997;52.242;8.168;2023-06-22T17:48:22;26.98;;;21.70;;
21671;SDS011;10997;52.242;8.168;2023-06-22T17:53:25;28.83;;;22.98;;
21671;SDS011;10997;52.242;8.168;2023-06-22T17:58:27;26.60;;;22.87;;
21671;SDS011;10997;52.242;8.168;2023-06-22T18:03:28;28.65;;;25.65;;
21671;SDS011;10997;52.242;8.168;2023-06-22T18:08:29;30.77;;;27.52;;
21671;SDS011;10997;52.242;8.168;2023-06-22T18:13:29;31.98;;;28.48;;
21671;SDS011;10997;52.242;8.168;2023-06-22T18:18:31;34.22;;;28.58;;
21671;SDS011;10997;52.242;8.168;2023-06-22T18:23:33;31.63;;;28.40;;
21671;SDS011;10997;52.242;8.168;2023-06-22T18:28:36;31.95;;;27.90;;
21671;SDS011;10997;52.242;8.168;2023-06-22T18:33:37;31.40;;;28.05;;
21671;SDS011;10997;52.242;8.168;2023-06-22T18:38:42;31.88;;;28.45;;
21671;SDS011;10997;52.242;8.168;2023-06-22T18:43:51;32.58;;;28.00;;
21671;SDS011;10997;52.242;8.168;2023-06-22T18:48:52;30.23;;;26.88;;
21671;SDS011;10997;52.242;8.168;2023-06-22T18:54:01;29.15;;;26.05;;
21671;SDS011;10997;52.242;8.168;2023-06-22T18:59:03;29.40;;;26.23;;
21671;SDS011;10997;52.242;8.168;2023-06-22T19:04:14;30.30;;;26.83;;
21671;SDS011;10997;52.242;8.168;2023-06-22T19:09:16;29.35;;;26.13;;
21671;SDS011;10997;52.242;8.168;2023-06-22T19:14:19;29.10;;;25.98;;
21671;SDS011;10997;52.242;8.168;2023-06-22T19:19:24;29.33;;;24.70;;
21671;SDS011;10997;52.242;8.168;2023-06-22T19:24:28;28.35;;;25.25;;
21671;SDS011;10997;52.242;8.168;2023-06-22T19:34:34;27.33;;;24.42;;
21671;SDS011;10997;52.242;8.168;2023-06-22T19:39:35;28.10;;;25.17;;
21671;SDS011;10997;52.242;8.168;2023-06-22T19:44:36;27.45;;;24.42;;
21671;SDS011;10997;52.242;8.168;2023-06-22T19:49:36;27.98;;;24.90;;
21671;SDS011;10997;52.242;8.168;2023-06-22T19:54:40;27.13;;;24.20;;
21671;SDS011;10997;52.242;8.168;2023-06-22T19:59:41;28.35;;;23.88;;
21671;SDS011;10997;52.242;8.168;2023-06-22T20:04:44;27.77;;;24.77;;
21671;SDS011;10997;52.242;8.168;2023-06-22T20:09:45;30.05;;;25.92;;
21671;SDS011;10997;52.242;8.168;2023-06-22T20:14:46;27.05;;;24.17;;
21671;SDS011;10997;52.242;8.168;2023-06-22T20:19:52;27.45;;;24.45;;
21671;SDS011;10997;52.242;8.168;2023-06-22T20:24:53;26.60;;;23.75;;
21671;SDS011;10997;52.242;8.168;2023-06-22T20:29:54;26.88;;;23.98;;
21671;SDS011;10997;52.242;8.168;2023-06-22T20:34:55;31.27;;;24.63;;
21671;SDS011;10997;52.242;8.168;2023-06-22T20:39:55;28.52;;;24.80;;
21671;SDS011;10997;52.242;8.168;2023-06-22T20:44:56;27.15;;;23.00;;
21671;SDS011;10997;52.242;8.168;2023-06-22T20:49:57;26.95;;;24.02;;
21671;SDS011;10997;52.242;8.168;2023-06-22T20:54:59;26.52;;;23.83;;
21671;SDS011;10997;52.242;8.168;2023-06-22T21:00:03;27.48;;;24.02;;
21671;SDS011;10997;52.242;8.168;2023-06-22T21:05:07;28.30;;;25.25;;
21671;SDS011;10997;52.242;8.168;2023-06-22T21:10:08;28.50;;;24.27;;
21671;SDS011;10997;52.242;8.168;2023-06-22T21:15:09;28.70;;;24.52;;
21671;SDS011;10997;52.242;8.168;2023-06-22T21:20:10;27.50;;;24.25;;
21671;SDS011;10997;52.242;8.168;2023-06-22T21:25:12;25.80;;;23.13;;
21671;SDS011;10997;52.242;8.168;2023-06-22T21:30:14;27.25;;;24.40;;
21671;SDS011;10997;52.242;8.168;2023-06-22T21:35:17;29.13;;;24.33;;
21671;SDS011;10997;52.242;8.168;2023-06-22T21:40:18;30.05;;;26.23;;
21671;SDS011;10997;52.242;8.168;2023-06-22T21:45:18;30.67;;;26.52;;
21671;SDS011;10997;52.242;8.168;2023-06-22T21:50:19;29.30;;;25.10;;
21671;SDS011;10997;52.242;8.168;2023-06-22T21:55:20;34.13;;;26.15;;
21671;SDS011;10997;52.242;8.168;2023-06-22T22:00:20;30.17;;;26.50;;
21671;SDS011;10997;52.242;8.168;2023-06-22T22:05:21;29.30;;;26.08;;
21671;SDS011;10997;52.242;8.168;2023-06-22T22:10:22;29.60;;;25.58;;
21671;SDS011;10997;52.242;8.168;2023-06-22T22:15:23;30.08;;;26.67;;
21671;SDS011;10997;52.242;8.168;2023-06-22T22:20:23;34.25;;;28.17;;
21671;SDS011;10997;52.242;8.168;2023-06-22T22:25:24;34.15;;;28.60;;
21671;SDS011;10997;52.242;8.168;2023-06-22T22:30:26;32.13;;;28.25;;
21671;SDS011;10997;52.242;8.168;2023-06-22T22:35:26;34.95;;;31.13;;
21671;SDS011;10997;52.242;8.168;2023-06-22T22:40:27;37.05;;;31.75;;
21671;SDS011;10997;52.242;8.168;2023-06-22T22:45:27;38.35;;;31.95;;
21671;SDS011;10997;52.242;8.168;2023-06-22T22:50:28;34.78;;;30.00;;
21671;SDS011;10997;52.242;8.168;2023-06-22T22:55:29;33.47;;;29.88;;
21671;SDS011;10997;52.242;8.168;2023-06-22T23:00:30;33.83;;;30.23;;
21671;SDS011;10997;52.242;8.168;2023-06-22T23:05:32;33.58;;;29.98;;
21671;SDS011;10997;52.242;8.168;2023-06-22T23:10:33;33.25;;;29.05;;
21671;SDS011;10997;52.242;8.168;2023-06-22T23:15:33;31.23;;;27.75;;
21671;SDS011;10997;52.242;8.168;2023-06-22T23:20:34;28.52;;;24.90;;
21671;SDS011;10997;52.242;8.168;2023-06-22T23:25:35;27.05;;;24.15;;
21671;SDS011;10997;52.242;8.168;2023-06-22T23:30:36;27.20;;;24.33;;
21671;SDS011;10997;52.242;8.168;2023-06-22T23:35:37;28.67;;;24.55;;
21671;SDS011;10997;52.242;8.168;2023-06-22T23:40:40;28.45;;;25.42;;
21671;SDS011;10997;52.242;8.168;2023-06-22T23:45:40;30.52;;;27.38;;
21671;SDS011;10997;52.242;8.168;2023-06-22T23:50:41;28.25;;;24.52;;
21671;SDS011;10997;52.242;8.168;2023-06-22T23:55:42;23.42;;;21.02;;
